createdAt,value
2018-05-11T00:00:26.691Z,0
2018-05-11T00:01:28.045Z,0
2018-05-11T00:02:29.405Z,0
2018-05-11T00:03:30.754Z,0
2018-05-11T00:04:32.113Z,0
2018-05-11T00:05:33.473Z,0
2018-05-11T00:06:34.826Z,0
2018-05-11T00:07:36.198Z,0
2018-05-11T00:08:37.550Z,0
2018-05-11T00:09:38.897Z,0
2018-05-11T00:10:40.255Z,0
2018-05-11T00:11:41.621Z,0
2018-05-11T00:12:42.984Z,0
2018-05-11T00:13:44.344Z,0
2018-05-11T00:14:45.703Z,0
2018-05-11T00:15:47.059Z,0
2018-05-11T00:16:48.422Z,0
2018-05-11T00:17:49.780Z,0
2018-05-11T00:18:51.167Z,0
2018-05-11T00:19:52.515Z,0
2018-05-11T00:20:53.870Z,0
2018-05-11T00:21:55.226Z,0
2018-05-11T00:22:56.585Z,0
2018-05-11T00:23:57.933Z,0
2018-05-11T00:24:59.290Z,0
2018-05-11T00:26:00.648Z,0
2018-05-11T00:27:02.016Z,0
2018-05-11T00:28:03.361Z,0
2018-05-11T00:29:04.712Z,0
2018-05-11T00:30:06.068Z,0
2018-05-11T00:31:07.423Z,0
2018-05-11T00:32:08.780Z,0
2018-05-11T00:33:10.155Z,0
2018-05-11T00:34:11.516Z,0
2018-05-11T00:35:12.866Z,0
2018-05-11T00:36:14.234Z,0
2018-05-11T00:37:15.586Z,0
2018-05-11T00:38:16.938Z,0
2018-05-11T00:39:18.292Z,0
2018-05-11T00:40:19.658Z,0
2018-05-11T00:41:21.019Z,0
2018-05-11T00:42:22.393Z,0
2018-05-11T00:43:23.754Z,0
2018-05-11T00:44:25.105Z,0
2018-05-11T00:45:26.458Z,0
2018-05-11T00:46:27.816Z,0
2018-05-11T00:47:29.184Z,0
2018-05-11T00:48:30.547Z,0
2018-05-11T00:49:31.891Z,0
2018-05-11T00:50:33.246Z,0
2018-05-11T00:51:34.617Z,0
2018-05-11T00:52:35.977Z,0
2018-05-11T00:53:37.385Z,0
2018-05-11T00:54:38.732Z,0
2018-05-11T00:55:40.087Z,0
2018-05-11T00:56:41.444Z,0
2018-05-11T00:57:42.862Z,0
2018-05-11T00:58:44.220Z,0
2018-05-11T00:59:45.570Z,0
2018-05-11T01:00:46.933Z,0
2018-05-11T01:01:48.289Z,0
2018-05-11T01:02:49.644Z,0
2018-05-11T01:03:51.001Z,0
2018-05-11T01:04:52.360Z,0
2018-05-11T01:05:53.725Z,0
2018-05-11T01:06:55.081Z,0
2018-05-11T01:07:56.435Z,0
2018-05-11T01:08:57.790Z,0
2018-05-11T01:09:59.142Z,0
2018-05-11T01:11:00.500Z,0
2018-05-11T01:12:01.855Z,0
2018-05-11T01:13:03.214Z,0
2018-05-11T01:14:04.562Z,0
2018-05-11T01:15:05.912Z,0
2018-05-11T01:16:07.275Z,0
2018-05-11T01:17:08.633Z,0
2018-05-11T01:18:10.080Z,0
2018-05-11T01:19:11.440Z,0
2018-05-11T01:20:12.812Z,0
2018-05-11T01:21:14.173Z,0
2018-05-11T01:22:15.545Z,0
2018-05-11T01:23:16.898Z,0
2018-05-11T01:24:18.252Z,0
2018-05-11T01:25:19.607Z,0
2018-05-11T01:26:20.962Z,0
2018-05-11T01:27:22.322Z,0
2018-05-11T01:28:23.671Z,0
2018-05-11T01:29:25.028Z,0
2018-05-11T01:30:26.388Z,0
2018-05-11T01:31:27.735Z,0
2018-05-11T01:32:29.085Z,0
2018-05-11T01:33:30.455Z,0
2018-05-11T01:34:31.801Z,0
2018-05-11T01:35:33.155Z,0
2018-05-11T01:36:34.516Z,0
2018-05-11T01:37:35.863Z,0
2018-05-11T01:38:37.218Z,0
2018-05-11T01:39:38.568Z,0
2018-05-11T01:40:39.923Z,0
2018-05-11T01:41:41.267Z,0
2018-05-11T01:42:42.635Z,0
2018-05-11T01:43:43.991Z,0
2018-05-11T01:44:45.350Z,0
2018-05-11T01:45:46.712Z,0
2018-05-11T01:46:48.065Z,0
2018-05-11T01:47:49.421Z,0
2018-05-11T01:48:50.796Z,0
2018-05-11T01:49:52.119Z,0
2018-05-11T01:50:53.473Z,0
2018-05-11T01:51:54.831Z,0
2018-05-11T01:52:56.184Z,0
2018-05-11T01:53:57.537Z,0
2018-05-11T01:54:58.892Z,0
2018-05-11T01:56:00.243Z,0
2018-05-11T01:57:01.599Z,0
2018-05-11T01:58:02.954Z,0
2018-05-11T01:59:04.306Z,0
2018-05-11T02:00:06.327Z,0
2018-05-11T02:01:07.701Z,0
2018-05-11T02:02:09.046Z,0
2018-05-11T02:03:10.428Z,0
2018-05-11T02:04:11.786Z,0
2018-05-11T02:05:13.152Z,0
2018-05-11T02:06:14.495Z,0
2018-05-11T02:07:15.842Z,0
2018-05-11T02:08:17.213Z,0
2018-05-11T02:09:18.576Z,0
2018-05-11T02:10:19.922Z,0
2018-05-11T02:11:21.274Z,0
2018-05-11T02:12:22.638Z,0
2018-05-11T02:13:23.986Z,0
2018-05-11T02:14:25.357Z,0
2018-05-11T02:15:26.706Z,0
2018-05-11T02:16:28.055Z,0
2018-05-11T02:17:29.408Z,0
2018-05-11T02:18:31.560Z,0
2018-05-11T02:19:32.855Z,0
2018-05-11T02:20:34.210Z,0
2018-05-11T02:21:35.638Z,0
2018-05-11T02:22:37.019Z,0
2018-05-11T02:23:38.373Z,0
2018-05-11T02:24:39.729Z,0
2018-05-11T02:25:41.081Z,0
2018-05-11T02:26:42.440Z,0
2018-05-11T02:27:43.793Z,0
2018-05-11T02:28:45.151Z,0
2018-05-11T02:29:46.537Z,0
2018-05-11T02:30:47.894Z,0
2018-05-11T02:31:49.264Z,0
2018-05-11T02:32:50.627Z,0
2018-05-11T02:33:52.003Z,0
2018-05-11T02:34:53.335Z,0
2018-05-11T02:35:54.691Z,0
2018-05-11T02:36:56.042Z,0
2018-05-11T02:37:57.397Z,0
2018-05-11T02:38:58.749Z,0
2018-05-11T02:40:00.100Z,0
2018-05-11T02:41:01.463Z,0
2018-05-11T02:42:02.806Z,0
2018-05-11T02:43:04.170Z,0
2018-05-11T02:44:05.539Z,0
2018-05-11T02:45:06.942Z,0
2018-05-11T02:46:08.292Z,0
2018-05-11T02:47:09.652Z,0
2018-05-11T02:48:10.999Z,0
2018-05-11T02:49:12.365Z,0
2018-05-11T02:50:13.726Z,0
2018-05-11T02:51:15.080Z,0
2018-05-11T02:52:16.430Z,0
2018-05-11T02:53:17.825Z,0
2018-05-11T02:54:19.186Z,0
2018-05-11T02:55:20.538Z,0
2018-05-11T02:56:21.887Z,0
2018-05-11T02:57:23.243Z,0
2018-05-11T02:58:24.592Z,0
2018-05-11T02:59:25.941Z,0
2018-05-11T03:00:27.291Z,0
2018-05-11T03:01:28.676Z,0
2018-05-11T03:02:30.029Z,0
2018-05-11T03:03:31.384Z,0
2018-05-11T03:04:32.737Z,0
2018-05-11T03:05:34.082Z,0
2018-05-11T03:06:35.499Z,0
2018-05-11T03:07:36.855Z,0
2018-05-11T03:08:38.215Z,0
2018-05-11T03:09:39.572Z,0
2018-05-11T03:10:40.925Z,4
2018-05-11T03:11:42.295Z,4
2018-05-11T03:12:43.643Z,4
2018-05-11T03:13:44.992Z,4
2018-05-11T03:14:46.347Z,4
2018-05-11T03:15:47.693Z,8
2018-05-11T03:16:49.046Z,4
2018-05-11T03:17:50.389Z,8
2018-05-11T03:18:51.745Z,8
2018-05-11T03:19:53.096Z,12
2018-05-11T03:20:54.451Z,12
2018-05-11T03:21:55.806Z,16
2018-05-11T03:22:57.165Z,16
2018-05-11T03:23:58.550Z,20
2018-05-11T03:24:59.914Z,24
2018-05-11T03:26:01.277Z,28
2018-05-11T03:27:02.625Z,32
2018-05-11T03:28:04.003Z,40
2018-05-11T03:29:05.355Z,48
2018-05-11T03:30:06.706Z,56
2018-05-11T03:31:08.069Z,64
2018-05-11T03:32:09.418Z,76
2018-05-11T03:33:10.788Z,84
2018-05-11T03:34:12.148Z,96
2018-05-11T03:35:13.505Z,108
2018-05-11T03:36:14.865Z,124
2018-05-11T03:37:16.212Z,140
2018-05-11T03:38:17.575Z,156
2018-05-11T03:39:18.988Z,180
2018-05-11T03:40:20.347Z,204
2018-05-11T03:41:21.706Z,224
2018-05-11T03:42:23.062Z,256
2018-05-11T03:43:24.412Z,284
2018-05-11T03:44:25.792Z,312
2018-05-11T03:45:27.123Z,344
2018-05-11T03:46:28.480Z,376
2018-05-11T03:47:29.851Z,416
2018-05-11T03:48:31.210Z,456
2018-05-11T03:49:32.563Z,496
2018-05-11T03:50:33.936Z,544
2018-05-11T03:51:35.291Z,588
2018-05-11T03:52:36.646Z,640
2018-05-11T03:53:38.011Z,688
2018-05-11T03:54:39.362Z,740
2018-05-11T03:55:40.720Z,792
2018-05-11T03:56:42.073Z,848
2018-05-11T03:57:43.434Z,904
2018-05-11T03:58:44.791Z,964
2018-05-11T03:59:46.156Z,1024
2018-05-11T04:00:47.518Z,1088
2018-05-11T04:01:48.881Z,1148
2018-05-11T04:02:50.230Z,1212
2018-05-11T04:03:51.594Z,1284
2018-05-11T04:04:52.944Z,1352
2018-05-11T04:05:54.296Z,1420
2018-05-11T04:06:55.656Z,1492
2018-05-11T04:07:57.024Z,1564
2018-05-11T04:08:58.379Z,1640
2018-05-11T04:09:59.727Z,1716
2018-05-11T04:11:01.088Z,1800
2018-05-11T04:12:02.460Z,1880
2018-05-11T04:13:03.883Z,1964
2018-05-11T04:14:05.181Z,2044
2018-05-11T04:15:06.536Z,2132
2018-05-11T04:16:07.966Z,2220
2018-05-11T04:17:09.247Z,2308
2018-05-11T04:18:10.646Z,2400
2018-05-11T04:19:12.015Z,2500
2018-05-11T04:20:13.384Z,2592
2018-05-11T04:21:14.734Z,2688
2018-05-11T04:22:16.098Z,2792
2018-05-11T04:23:17.455Z,2888
2018-05-11T04:24:18.818Z,2988
2018-05-11T04:25:20.167Z,3092
2018-05-11T04:26:21.542Z,3200
2018-05-11T04:27:22.901Z,3316
2018-05-11T04:28:24.258Z,3436
2018-05-11T04:29:25.645Z,3572
2018-05-11T04:30:26.986Z,3712
2018-05-11T04:31:28.341Z,3844
2018-05-11T04:32:29.699Z,3976
2018-05-11T04:33:31.070Z,4092
2018-05-11T04:34:32.440Z,4204
2018-05-11T04:35:33.802Z,4320
2018-05-11T04:36:35.176Z,4436
2018-05-11T04:37:36.540Z,4552
2018-05-11T04:38:37.905Z,4680
2018-05-11T04:39:39.254Z,4816
2018-05-11T04:40:40.638Z,4956
2018-05-11T04:41:42.008Z,5100
2018-05-11T04:42:43.354Z,5228
2018-05-11T04:43:44.715Z,5340
2018-05-11T04:44:46.086Z,5428
2018-05-11T04:45:47.479Z,5488
2018-05-11T04:46:48.832Z,5540
2018-05-11T04:47:50.193Z,5600
2018-05-11T04:48:51.559Z,5684
2018-05-11T04:49:52.911Z,5764
2018-05-11T04:50:54.280Z,5836
2018-05-11T04:51:55.648Z,5888
2018-05-11T04:52:56.995Z,5912
2018-05-11T04:53:58.351Z,5928
2018-05-11T04:54:59.716Z,5968
2018-05-11T04:56:01.096Z,6032
2018-05-11T04:57:02.473Z,6128
2018-05-11T04:58:03.853Z,6236
2018-05-11T04:59:05.218Z,6372
2018-05-11T05:00:06.571Z,6512
2018-05-11T05:01:07.929Z,6644
2018-05-11T05:02:09.290Z,6740
2018-05-11T05:03:10.671Z,6800
2018-05-11T05:04:12.043Z,6876
2018-05-11T05:05:13.407Z,6996
2018-05-11T05:06:14.774Z,7172
2018-05-11T05:07:16.121Z,7416
2018-05-11T05:08:17.484Z,7712
2018-05-11T05:09:18.844Z,8048
2018-05-11T05:10:20.208Z,8404
2018-05-11T05:11:21.565Z,8788
2018-05-11T05:12:22.935Z,9196
2018-05-11T05:13:24.286Z,9588
2018-05-11T05:14:25.646Z,9920
2018-05-11T05:15:27.007Z,10160
2018-05-11T05:16:28.349Z,10316
2018-05-11T05:17:29.713Z,10420
2018-05-11T05:18:31.093Z,10500
2018-05-11T05:19:32.455Z,10564
2018-05-11T05:20:33.870Z,10604
2018-05-11T05:21:35.233Z,10652
2018-05-11T05:22:36.613Z,10696
2018-05-11T05:23:37.978Z,10768
2018-05-11T05:24:39.335Z,10864
2018-05-11T05:25:40.702Z,10980
2018-05-11T05:26:42.058Z,11124
2018-05-11T05:27:43.423Z,11272
2018-05-11T05:28:44.789Z,11424
2018-05-11T05:29:46.153Z,11564
2018-05-11T05:30:47.550Z,11692
2018-05-11T05:31:48.907Z,11832
2018-05-11T05:32:50.292Z,11976
2018-05-11T05:33:51.668Z,12136
2018-05-11T05:34:53.041Z,12264
2018-05-11T05:35:54.395Z,12396
2018-05-11T05:36:55.804Z,12508
2018-05-11T05:37:57.177Z,12640
2018-05-11T05:38:58.576Z,12780
2018-05-11T05:39:59.926Z,12932
2018-05-11T05:41:01.319Z,13072
2018-05-11T05:42:02.832Z,13200
2018-05-11T05:43:04.217Z,13316
2018-05-11T05:44:05.596Z,13432
2018-05-11T05:45:06.976Z,13552
2018-05-11T05:46:08.506Z,13668
2018-05-11T05:47:09.901Z,13760
2018-05-11T05:48:11.278Z,13832
2018-05-11T05:49:12.648Z,13936
2018-05-11T05:50:15.026Z,14268
2018-05-11T05:51:16.393Z,14688
2018-05-11T05:52:17.758Z,15068
2018-05-11T05:53:19.136Z,15320
2018-05-11T05:54:20.499Z,15460
2018-05-11T05:55:21.888Z,15576
2018-05-11T05:56:23.273Z,15712
2018-05-11T05:57:24.642Z,15864
2018-05-11T05:58:26.014Z,16036
2018-05-11T05:59:27.348Z,16220
2018-05-11T06:00:28.709Z,16420
2018-05-11T06:01:30.071Z,16632
2018-05-11T06:02:31.469Z,16840
2018-05-11T06:03:32.810Z,17016
2018-05-11T06:04:34.223Z,17220
2018-05-11T06:05:35.556Z,17412
2018-05-11T06:06:36.924Z,17672
2018-05-11T06:07:38.296Z,18028
2018-05-11T06:08:39.676Z,18360
2018-05-11T06:09:41.033Z,18708
2018-05-11T06:10:42.401Z,19264
2018-05-11T06:11:43.759Z,19552
2018-05-11T06:12:45.212Z,19840
2018-05-11T06:13:46.490Z,20096
2018-05-11T06:14:47.881Z,20288
2018-05-11T06:15:49.252Z,20384
2018-05-11T06:16:50.640Z,20544
2018-05-11T06:17:52.023Z,20896
2018-05-11T06:18:53.394Z,21408
2018-05-11T06:19:54.778Z,21920
2018-05-11T06:20:56.156Z,22848
2018-05-11T06:21:57.589Z,24768
2018-05-11T06:22:58.937Z,27232
2018-05-11T06:24:00.327Z,29024
2018-05-11T06:25:01.720Z,29984
2018-05-11T06:26:03.138Z,29472
2018-05-11T06:27:04.553Z,28512
2018-05-11T06:28:05.930Z,28576
2018-05-11T06:29:07.313Z,28896
2018-05-11T06:30:08.724Z,29856
2018-05-11T06:31:10.152Z,31424
2018-05-11T06:32:11.541Z,32640
2018-05-11T06:33:12.966Z,33312
2018-05-11T06:34:14.355Z,35648
2018-05-11T06:35:15.730Z,38400
2018-05-11T06:36:17.112Z,40224
2018-05-11T06:37:18.504Z,41376
2018-05-11T06:38:19.906Z,42688
2018-05-11T06:39:21.308Z,44896
2018-05-11T06:40:22.691Z,46656
2018-05-11T06:41:24.134Z,49600
2018-05-11T06:42:25.547Z,49152
2018-05-11T06:43:26.955Z,48704
2018-05-11T06:44:28.375Z,48704
2018-05-11T06:45:29.752Z,49632
2018-05-11T06:46:31.153Z,50528
2018-05-11T06:47:32.546Z,48384
2018-05-11T06:48:33.932Z,47840
2018-05-11T06:49:36.206Z,47392
2018-05-11T06:50:37.629Z,46592
2018-05-11T06:51:39.033Z,43936
2018-05-11T06:52:40.423Z,40192
2018-05-11T06:53:41.801Z,41856
2018-05-11T06:54:43.180Z,43776
2018-05-11T06:55:44.578Z,40864
2018-05-11T06:56:48.029Z,40224
2018-05-11T06:57:49.424Z,43648
2018-05-11T06:58:50.799Z,42816
2018-05-11T06:59:52.183Z,38496
2018-05-11T07:00:53.563Z,37216
2018-05-11T07:01:54.964Z,38016
2018-05-11T07:02:56.346Z,38720
2018-05-11T07:03:57.730Z,39808
2018-05-11T07:04:59.112Z,39168
2018-05-11T07:06:00.494Z,38400
2018-05-11T07:07:01.900Z,39328
2018-05-11T07:08:03.311Z,39680
2018-05-11T07:09:04.656Z,39328
2018-05-11T07:10:06.047Z,40576
2018-05-11T07:11:07.445Z,41792
2018-05-11T07:12:08.960Z,40896
2018-05-11T07:13:10.356Z,39968
2018-05-11T07:14:11.745Z,40320
2018-05-11T07:15:13.132Z,40640
2018-05-11T07:16:14.518Z,40736
2018-05-11T07:17:15.902Z,41760
2018-05-11T07:18:17.261Z,42336
2018-05-11T07:19:18.675Z,43680
2018-05-11T07:20:20.029Z,44096
2018-05-11T07:21:21.433Z,45344
2018-05-11T07:22:22.810Z,47104
2018-05-11T07:23:24.209Z,47392
2018-05-11T07:24:25.605Z,48096
2018-05-11T07:25:26.992Z,51232
2018-05-11T07:26:28.381Z,54080
2018-05-11T07:27:29.759Z,54080
2018-05-11T07:28:31.143Z,52128
2018-05-11T07:29:32.530Z,49472
2018-05-11T07:30:33.952Z,48288
2018-05-11T07:31:35.345Z,49440
2018-05-11T07:32:36.741Z,52512
2018-05-11T07:33:38.132Z,58496
2018-05-11T07:34:39.514Z,61536
2018-05-11T07:35:40.907Z,57344
2018-05-11T07:36:42.297Z,54304
2018-05-11T07:37:43.693Z,52512
2018-05-11T07:38:45.082Z,46592
2018-05-11T07:39:46.506Z,42944
2018-05-11T07:40:47.886Z,41728
2018-05-11T07:41:49.274Z,40320
2018-05-11T07:42:50.665Z,39392
2018-05-11T07:43:52.080Z,38688
2018-05-11T07:44:53.477Z,38368
2018-05-11T07:45:54.895Z,38304
2018-05-11T07:46:56.280Z,38400
2018-05-11T07:47:57.670Z,38496
2018-05-11T07:48:59.078Z,38592
2018-05-11T07:50:00.485Z,38624
2018-05-11T07:51:01.886Z,38752
2018-05-11T07:52:03.282Z,38880
2018-05-11T07:53:04.670Z,39040
2018-05-11T07:54:06.132Z,39168
2018-05-11T07:55:07.528Z,39648
2018-05-11T07:56:08.916Z,39808
2018-05-11T07:57:10.336Z,40160
2018-05-11T07:58:11.757Z,40480
2018-05-11T07:59:13.172Z,40640
2018-05-11T08:00:14.574Z,40832
2018-05-11T08:01:16.020Z,41152
2018-05-11T08:02:17.460Z,41344
2018-05-11T08:03:18.899Z,41248
2018-05-11T08:04:20.286Z,41376
2018-05-11T08:05:21.691Z,41440
2018-05-11T08:06:23.087Z,41728
2018-05-11T08:07:24.497Z,42144
2018-05-11T08:08:25.919Z,42240
2018-05-11T08:09:27.340Z,42368
2018-05-11T08:10:28.761Z,42560
2018-05-11T08:11:30.172Z,42720
2018-05-11T08:12:31.591Z,42880
2018-05-11T08:13:32.981Z,43008
2018-05-11T08:14:34.454Z,43232
2018-05-11T08:15:35.763Z,43392
2018-05-11T08:16:37.177Z,43744
2018-05-11T08:17:38.573Z,43648
2018-05-11T08:18:39.983Z,43744
2018-05-11T08:19:41.407Z,43744
2018-05-11T08:20:42.808Z,44224
2018-05-11T08:21:44.201Z,44544
2018-05-11T08:22:45.603Z,45344
2018-05-11T08:23:47.001Z,49760
2018-05-11T08:24:48.404Z,60288
2018-05-11T08:25:49.820Z,73344
2018-05-11T08:26:52.189Z,85632
2018-05-11T08:27:53.488Z,83424
2018-05-11T08:28:54.877Z,73728
2018-05-11T08:29:56.266Z,72704
2018-05-11T08:30:57.670Z,78656
2018-05-11T08:31:59.076Z,84480
2018-05-11T08:33:00.481Z,83808
2018-05-11T08:34:01.884Z,84032
2018-05-11T08:35:03.277Z,83456
2018-05-11T08:36:04.682Z,81632
2018-05-11T08:37:06.091Z,83808
2018-05-11T08:38:07.549Z,85312
2018-05-11T08:39:08.882Z,91552
2018-05-11T08:40:10.358Z,93536
2018-05-11T08:41:11.788Z,85344
2018-05-11T08:42:13.177Z,93632
2018-05-11T08:43:14.585Z,91008
2018-05-11T08:44:15.975Z,88032
2018-05-11T08:45:17.385Z,94176
2018-05-11T08:46:18.775Z,98304
2018-05-11T08:47:20.170Z,101408
2018-05-11T08:48:21.589Z,97760
2018-05-11T08:49:22.972Z,95648
2018-05-11T08:50:24.386Z,94272
2018-05-11T08:51:25.768Z,96288
2018-05-11T08:52:27.183Z,94880
2018-05-11T08:53:28.582Z,55808
2018-05-11T08:54:29.981Z,91712
2018-05-11T08:55:31.395Z,92704
2018-05-11T08:56:32.782Z,66912
2018-05-11T08:57:34.178Z,97536
2018-05-11T08:58:35.563Z,97216
2018-05-11T08:59:36.952Z,91360
2018-05-11T09:00:38.408Z,35200
2018-05-11T09:01:39.807Z,27808
2018-05-11T09:02:41.203Z,26304
2018-05-11T09:03:42.613Z,29952
2018-05-11T09:04:44.012Z,51776
2018-05-11T09:05:45.405Z,28096
2018-05-11T09:06:46.791Z,31232
2018-05-11T09:07:48.208Z,91584
2018-05-11T09:08:49.622Z,45568
2018-05-11T09:09:51.026Z,78752
2018-05-11T09:10:52.413Z,94912
2018-05-11T09:11:53.817Z,48512
2018-05-11T09:12:55.214Z,80032
2018-05-11T09:13:56.611Z,49920
2018-05-11T09:14:58.000Z,73728
2018-05-11T09:15:59.401Z,58816
2018-05-11T09:17:00.783Z,43520
2018-05-11T09:18:02.178Z,80800
2018-05-11T09:19:03.575Z,39136
2018-05-11T09:20:04.965Z,39168
2018-05-11T09:21:06.358Z,58080
2018-05-11T09:22:07.802Z,103552
2018-05-11T09:23:09.104Z,93088
2018-05-11T09:24:10.502Z,57216
2018-05-11T09:25:11.896Z,53760
2018-05-11T09:26:13.280Z,64832
2018-05-11T09:27:14.682Z,82624
2018-05-11T09:28:16.099Z,50496
2018-05-11T09:29:17.487Z,47552
2018-05-11T09:30:18.881Z,37056
2018-05-11T09:31:20.276Z,28960
2018-05-11T09:32:21.660Z,29984
2018-05-11T09:33:23.071Z,42080
2018-05-11T09:34:24.463Z,39296
2018-05-11T09:35:25.851Z,79680
2018-05-11T09:36:27.245Z,33440
2018-05-11T09:37:28.628Z,30272
2018-05-11T09:38:30.010Z,27936
2018-05-11T09:39:31.501Z,25952
2018-05-11T09:40:32.851Z,24960
2018-05-11T09:41:34.265Z,25728
2018-05-11T09:42:36.484Z,26720
2018-05-11T09:43:37.887Z,27328
2018-05-11T09:44:39.323Z,27360
2018-05-11T09:45:40.705Z,27680
2018-05-11T09:46:42.089Z,29376
2018-05-11T09:47:43.487Z,29568
2018-05-11T09:48:44.920Z,29568
2018-05-11T09:49:46.299Z,29440
2018-05-11T09:50:47.684Z,28640
2018-05-11T09:51:49.065Z,26944
2018-05-11T09:52:50.453Z,26080
2018-05-11T09:53:51.840Z,26144
2018-05-11T09:54:53.254Z,27680
2018-05-11T09:55:54.608Z,31072
2018-05-11T09:56:55.984Z,33408
2018-05-11T09:57:57.368Z,33888
2018-05-11T09:58:58.765Z,33248
2018-05-11T10:00:00.203Z,32640
2018-05-11T10:01:01.601Z,32832
2018-05-11T10:02:02.986Z,34112
2018-05-11T10:03:04.377Z,36160
2018-05-11T10:04:05.763Z,38656
2018-05-11T10:05:07.150Z,59456
2018-05-11T10:06:08.579Z,49024
2018-05-11T10:07:09.977Z,121216
2018-05-11T10:08:11.356Z,119232
2018-05-11T10:09:12.742Z,115584
2018-05-11T10:10:14.170Z,113984
2018-05-11T10:11:15.566Z,109664
2018-05-11T10:12:16.958Z,44416
2018-05-11T10:13:18.358Z,41536
2018-05-11T10:14:19.777Z,111936
2018-05-11T10:15:21.191Z,108192
2018-05-11T10:16:22.615Z,42176
2018-05-11T10:17:23.939Z,87968
2018-05-11T10:18:25.327Z,38016
2018-05-11T10:19:26.721Z,37312
2018-05-11T10:20:28.192Z,38304
2018-05-11T10:21:29.586Z,37088
2018-05-11T10:22:30.974Z,35104
2018-05-11T10:23:32.357Z,33920
2018-05-11T10:24:33.744Z,33856
2018-05-11T10:25:35.136Z,35648
2018-05-11T10:26:36.525Z,37920
2018-05-11T10:27:37.928Z,122592
2018-05-11T10:28:39.402Z,40352
2018-05-11T10:29:40.743Z,37216
2018-05-11T10:30:42.132Z,32480
2018-05-11T10:31:43.524Z,30400
2018-05-11T10:32:44.964Z,30080
2018-05-11T10:33:46.512Z,30176
2018-05-11T10:34:47.909Z,30080
2018-05-11T10:35:49.292Z,30208
2018-05-11T10:36:50.681Z,31456
2018-05-11T10:37:52.082Z,32736
2018-05-11T10:38:53.474Z,34432
2018-05-11T10:39:54.924Z,36032
2018-05-11T10:40:56.246Z,35968
2018-05-11T10:41:57.788Z,32992
2018-05-11T10:42:59.184Z,33248
2018-05-11T10:44:00.577Z,33472
2018-05-11T10:45:01.977Z,44736
2018-05-11T10:46:03.365Z,32608
2018-05-11T10:47:04.746Z,31296
2018-05-11T10:48:06.257Z,30144
2018-05-11T10:49:07.660Z,28480
2018-05-11T10:50:09.051Z,27392
2018-05-11T10:51:10.432Z,26272
2018-05-11T10:52:11.818Z,26208
2018-05-11T10:53:13.201Z,28064
2018-05-11T10:54:14.766Z,27872
2018-05-11T10:55:16.200Z,29248
2018-05-11T10:56:17.602Z,30912
2018-05-11T10:57:18.993Z,34016
2018-05-11T10:58:20.372Z,35872
2018-05-11T10:59:21.774Z,37888
2018-05-11T11:00:23.148Z,40352
2018-05-11T11:01:24.533Z,44032
2018-05-11T11:02:26.040Z,51808
2018-05-11T11:03:27.301Z,79104
2018-05-11T11:04:28.716Z,105440
2018-05-11T11:05:30.287Z,144192
2018-05-11T11:06:31.682Z,142496
2018-05-11T11:07:33.087Z,131808
2018-05-11T11:08:34.557Z,124096
2018-05-11T11:09:35.955Z,83392
2018-05-11T11:10:37.336Z,57376
2018-05-11T11:11:38.823Z,103424
2018-05-11T11:12:40.732Z,129280
2018-05-11T11:13:42.136Z,50048
2018-05-11T11:14:43.541Z,40192
2018-05-11T11:15:45.298Z,34336
2018-05-11T11:16:46.695Z,31936
2018-05-11T11:17:48.249Z,31040
2018-05-11T11:18:49.772Z,28672
2018-05-11T11:19:51.245Z,26208
2018-05-11T11:20:52.885Z,24800
2018-05-11T11:21:54.264Z,23936
2018-05-11T11:22:55.647Z,23360
2018-05-11T11:23:57.045Z,23520
2018-05-11T11:24:58.430Z,24256
2018-05-11T11:25:59.860Z,25632
2018-05-11T11:27:01.248Z,27584
2018-05-11T11:28:02.642Z,28768
2018-05-11T11:29:04.055Z,29888
2018-05-11T11:30:06.426Z,30656
2018-05-11T11:31:07.828Z,31104
2018-05-11T11:32:09.225Z,30624
2018-05-11T11:33:10.612Z,30592
2018-05-11T11:34:11.998Z,30976
2018-05-11T11:35:13.377Z,32000
2018-05-11T11:36:14.763Z,33248
2018-05-11T11:37:16.151Z,34816
2018-05-11T11:38:17.536Z,37216
2018-05-11T11:39:18.886Z,40384
2018-05-11T11:40:20.279Z,44416
2018-05-11T11:41:21.674Z,51712
2018-05-11T11:42:23.154Z,52928
2018-05-11T11:43:24.658Z,55776
2018-05-11T11:44:26.051Z,66784
2018-05-11T11:45:27.483Z,51552
2018-05-11T11:46:28.881Z,50432
2018-05-11T11:47:30.349Z,51200
2018-05-11T11:48:31.763Z,45312
2018-05-11T11:49:33.146Z,62720
2018-05-11T11:50:34.542Z,40864
2018-05-11T11:51:36.199Z,38080
2018-05-11T11:52:37.763Z,34944
2018-05-11T11:53:39.332Z,32128
2018-05-11T11:54:40.730Z,29984
2018-05-11T11:55:42.108Z,28448
2018-05-11T11:56:43.495Z,27296
2018-05-11T11:57:44.909Z,26784
2018-05-11T11:58:46.295Z,26592
2018-05-11T11:59:48.303Z,26528
2018-05-11T12:00:49.702Z,26528
2018-05-11T12:01:51.105Z,26784
2018-05-11T12:02:52.469Z,27456
2018-05-11T12:03:53.871Z,28544
2018-05-11T12:04:55.289Z,30400
2018-05-11T12:05:56.682Z,32224
2018-05-11T12:06:58.323Z,33856
2018-05-11T12:07:59.724Z,36768
2018-05-11T12:09:01.168Z,43488
2018-05-11T12:10:02.508Z,45664
2018-05-11T12:11:03.878Z,42144
2018-05-11T12:12:05.307Z,38400
2018-05-11T12:13:06.698Z,36320
2018-05-11T12:14:08.075Z,35552
2018-05-11T12:15:09.468Z,36544
2018-05-11T12:16:10.863Z,41760
2018-05-11T12:17:12.357Z,40864
2018-05-11T12:18:13.743Z,43456
2018-05-11T12:19:15.127Z,49056
2018-05-11T12:20:16.519Z,92960
2018-05-11T12:21:17.910Z,78496
2018-05-11T12:22:19.323Z,97696
2018-05-11T12:23:20.790Z,119808
2018-05-11T12:24:22.168Z,117600
2018-05-11T12:25:23.557Z,114880
2018-05-11T12:26:25.038Z,110624
2018-05-11T12:27:26.348Z,104320
2018-05-11T12:28:27.769Z,39008
2018-05-11T12:29:29.193Z,35136
2018-05-11T12:30:30.615Z,35072
2018-05-11T12:31:32.022Z,36416
2018-05-11T12:32:33.422Z,38240
2018-05-11T12:33:34.793Z,47456
2018-05-11T12:34:36.225Z,45120
2018-05-11T12:35:37.604Z,113152
2018-05-11T12:36:39.020Z,115520
2018-05-11T12:37:40.428Z,108032
2018-05-11T12:38:41.812Z,106176
2018-05-11T12:39:43.253Z,111648
2018-05-11T12:40:44.644Z,104544
2018-05-11T12:41:46.030Z,45504
2018-05-11T12:42:47.414Z,37120
2018-05-11T12:43:48.812Z,40672
2018-05-11T12:44:50.206Z,47168
2018-05-11T12:45:51.613Z,97376
2018-05-11T12:46:53.024Z,95744
2018-05-11T12:47:54.414Z,95200
2018-05-11T12:48:55.851Z,66048
2018-05-11T12:49:57.226Z,77920
2018-05-11T12:50:58.620Z,110432
2018-05-11T12:52:00.036Z,115168
2018-05-11T12:53:01.420Z,42848
2018-05-11T12:54:02.806Z,46880
2018-05-11T12:55:04.208Z,112512
2018-05-11T12:56:06.544Z,38912
2018-05-11T12:57:07.961Z,41376
2018-05-11T12:58:09.377Z,44608
2018-05-11T12:59:10.773Z,72000
2018-05-11T13:00:12.193Z,84448
2018-05-11T13:01:13.580Z,96224
2018-05-11T13:02:14.963Z,105120
2018-05-11T13:03:16.353Z,37088
2018-05-11T13:04:17.743Z,40288
2018-05-11T13:05:19.147Z,52096
2018-05-11T13:06:20.533Z,37600
2018-05-11T13:07:21.932Z,36576
2018-05-11T13:08:23.333Z,67104
2018-05-11T13:09:24.732Z,38976
2018-05-11T13:10:26.121Z,33920
2018-05-11T13:11:27.507Z,32096
2018-05-11T13:12:28.899Z,39968
2018-05-11T13:13:30.289Z,31936
2018-05-11T13:14:31.675Z,30912
2018-05-11T13:15:33.064Z,29120
2018-05-11T13:16:34.447Z,28384
2018-05-11T13:17:35.844Z,28480
2018-05-11T13:18:37.227Z,28736
2018-05-11T13:19:38.639Z,29568
2018-05-11T13:20:40.036Z,31968
2018-05-11T13:21:41.379Z,36064
2018-05-11T13:22:42.781Z,40032
2018-05-11T13:23:44.161Z,103168
2018-05-11T13:24:45.548Z,101632
2018-05-11T13:25:46.957Z,102496
2018-05-11T13:26:48.339Z,98816
2018-05-11T13:27:49.753Z,82112
2018-05-11T13:28:51.125Z,38944
2018-05-11T13:29:52.505Z,29248
2018-05-11T13:30:53.892Z,76192
2018-05-11T13:31:55.273Z,23872
2018-05-11T13:32:56.662Z,21984
2018-05-11T13:33:58.049Z,22368
2018-05-11T13:34:59.449Z,23744
2018-05-11T13:36:00.837Z,25408
2018-05-11T13:37:02.234Z,26816
2018-05-11T13:38:04.343Z,27840
2018-05-11T13:39:06.670Z,27200
2018-05-11T13:40:08.052Z,26848
2018-05-11T13:41:09.487Z,27136